sensor_id;sensor_type;location;lat;lon;timestamp;temperature;humidity
41592;DHT22;28026;48.562;14.440;2022-08-19T00:01:57;18.70;99.90
41592;DHT22;28026;48.562;14.440;2022-08-19T00:04:30;18.70;99.90
41592;DHT22;28026;48.562;14.440;2022-08-19T00:07:06;18.70;99.90
41592;DHT22;28026;48.562;14.440;2022-08-19T00:09:38;18.70;99.90
41592;DHT22;28026;48.562;14.440;2022-08-19T00:12:09;18.60;99.90
41592;DHT22;28026;48.562;14.440;2022-08-19T00:14:41;18.60;99.90
41592;DHT22;28026;48.562;14.440;2022-08-19T00:17:12;18.60;99.90
41592;DHT22;28026;48.562;14.440;2022-08-19T00:19:43;18.50;99.90
41592;DHT22;28026;48.562;14.440;2022-08-19T00:22:14;18.30;99.90
41592;DHT22;28026;48.562;14.440;2022-08-19T00:24:48;18.30;99.90
41592;DHT22;28026;48.562;14.440;2022-08-19T00:27:19;18.40;99.90
41592;DHT22;28026;48.562;14.440;2022-08-19T00:29:50;18.50;99.90
41592;DHT22;28026;48.562;14.440;2022-08-19T00:32:21;18.50;99.90
41592;DHT22;28026;48.562;14.440;2022-08-19T00:34:52;18.40;99.90
41592;DHT22;28026;48.562;14.440;2022-08-19T00:37:24;18.30;99.90
41592;DHT22;28026;48.562;14.440;2022-08-19T00:39:56;18.30;99.90
41592;DHT22;28026;48.562;14.440;2022-08-19T00:42:27;18.30;99.90
41592;DHT22;28026;48.562;14.440;2022-08-19T00:44:58;18.20;99.90
41592;DHT22;28026;48.562;14.440;2022-08-19T00:47:30;18.30;99.90
41592;DHT22;28026;48.562;14.440;2022-08-19T00:50:01;18.30;99.90
41592;DHT22;28026;48.562;14.440;2022-08-19T00:52:35;18.30;99.90
41592;DHT22;28026;48.562;14.440;2022-08-19T00:55:16;18.10;99.90
41592;DHT22;28026;48.562;14.440;2022-08-19T00:57:58;18.00;99.90
41592;DHT22;28026;48.562;14.440;2022-08-19T01:00:37;18.00;99.90
41592;DHT22;28026;48.562;14.440;2022-08-19T01:03:13;17.90;99.90
41592;DHT22;28026;48.562;14.440;2022-08-19T01:05:50;18.00;99.90
41592;DHT22;28026;48.562;14.440;2022-08-19T01:08:25;18.00;99.90
41592;DHT22;28026;48.562;14.440;2022-08-19T01:10:58;18.10;99.90
41592;DHT22;28026;48.562;14.440;2022-08-19T01:13:33;17.90;99.90
41592;DHT22;28026;48.562;14.440;2022-08-19T01:16:08;17.90;99.90
41592;DHT22;28026;48.562;14.440;2022-08-19T01:18:42;17.90;99.90
41592;DHT22;28026;48.562;14.440;2022-08-19T01:21:31;17.90;99.90
41592;DHT22;28026;48.562;14.440;2022-08-19T01:24:12;17.80;99.90
41592;DHT22;28026;48.562;14.440;2022-08-19T01:26:44;17.70;99.90
41592;DHT22;28026;48.562;14.440;2022-08-19T01:29:17;17.70;99.90
41592;DHT22;28026;48.562;14.440;2022-08-19T01:31:48;17.40;99.90
41592;DHT22;28026;48.562;14.440;2022-08-19T01:34:22;17.40;99.90
41592;DHT22;28026;48.562;14.440;2022-08-19T01:36:54;17.40;99.90
41592;DHT22;28026;48.562;14.440;2022-08-19T01:39:25;17.40;99.90
41592;DHT22;28026;48.562;14.440;2022-08-19T01:41:57;17.40;99.90
41592;DHT22;28026;48.562;14.440;2022-08-19T01:44:28;17.50;99.90
41592;DHT22;28026;48.562;14.440;2022-08-19T01:46:59;17.60;99.90
41592;DHT22;28026;48.562;14.440;2022-08-19T01:49:30;17.50;99.90
41592;DHT22;28026;48.562;14.440;2022-08-19T01:52:01;17.60;99.90
41592;DHT22;28026;48.562;14.440;2022-08-19T01:54:33;17.60;99.90
41592;DHT22;28026;48.562;14.440;2022-08-19T01:57:07;17.50;99.90
41592;DHT22;28026;48.562;14.440;2022-08-19T01:59:43;17.50;99.90
41592;DHT22;28026;48.562;14.440;2022-08-19T02:02:16;17.50;99.90
41592;DHT22;28026;48.562;14.440;2022-08-19T02:04:47;17.60;99.90
41592;DHT22;28026;48.562;14.440;2022-08-19T02:07:20;17.50;99.90
41592;DHT22;28026;48.562;14.440;2022-08-19T02:09:51;17.40;99.90
41592;DHT22;28026;48.562;14.440;2022-08-19T02:12:22;17.40;99.90
41592;DHT22;28026;48.562;14.440;2022-08-19T02:14:53;17.40;99.90
41592;DHT22;28026;48.562;14.440;2022-08-19T02:17:24;17.40;99.90
41592;DHT22;28026;48.562;14.440;2022-08-19T02:19:56;17.40;99.90
41592;DHT22;28026;48.562;14.440;2022-08-19T02:22:27;17.40;99.90
41592;DHT22;28026;48.562;14.440;2022-08-19T02:24:58;17.30;99.90
41592;DHT22;28026;48.562;14.440;2022-08-19T02:27:29;17.30;99.90
41592;DHT22;28026;48.562;14.440;2022-08-19T02:30:01;17.30;99.90
41592;DHT22;28026;48.562;14.440;2022-08-19T02:32:35;17.40;99.90
41592;DHT22;28026;48.562;14.440;2022-08-19T02:35:06;17.40;99.90
41592;DHT22;28026;48.562;14.440;2022-08-19T02:37:39;17.30;99.90
41592;DHT22;28026;48.562;14.440;2022-08-19T02:40:31;17.30;99.90
41592;DHT22;28026;48.562;14.440;2022-08-19T02:43:06;17.40;99.90
41592;DHT22;28026;48.562;14.440;2022-08-19T02:45:39;17.50;99.90
41592;DHT22;28026;48.562;14.440;2022-08-19T02:48:10;17.50;99.90
41592;DHT22;28026;48.562;14.440;2022-08-19T02:50:41;17.40;99.90
41592;DHT22;28026;48.562;14.440;2022-08-19T02:53:13;17.50;99.90
41592;DHT22;28026;48.562;14.440;2022-08-19T02:55:45;17.30;99.90
41592;DHT22;28026;48.562;14.440;2022-08-19T02:58:18;17.30;99.90
41592;DHT22;28026;48.562;14.440;2022-08-19T03:00:52;17.20;99.90
41592;DHT22;28026;48.562;14.440;2022-08-19T03:03:26;17.20;99.90
41592;DHT22;28026;48.562;14.440;2022-08-19T03:06:14;17.20;99.90
41592;DHT22;28026;48.562;14.440;2022-08-19T03:08:46;17.20;99.90
41592;DHT22;28026;48.562;14.440;2022-08-19T03:11:25;17.30;99.90
41592;DHT22;28026;48.562;14.440;2022-08-19T03:14:02;17.30;99.90
41592;DHT22;28026;48.562;14.440;2022-08-19T03:16:45;17.20;99.90
41592;DHT22;28026;48.562;14.440;2022-08-19T03:19:21;17.30;99.90
41592;DHT22;28026;48.562;14.440;2022-08-19T03:21:52;17.30;99.90
41592;DHT22;28026;48.562;14.440;2022-08-19T03:24:24;17.40;99.90
41592;DHT22;28026;48.562;14.440;2022-08-19T03:26:55;17.00;99.90
41592;DHT22;28026;48.562;14.440;2022-08-19T03:29:31;16.90;99.90
41592;DHT22;28026;48.562;14.440;2022-08-19T03:32:04;17.00;99.90
41592;DHT22;28026;48.562;14.440;2022-08-19T03:34:36;16.90;99.90
41592;DHT22;28026;48.562;14.440;2022-08-19T03:37:10;16.80;99.90
41592;DHT22;28026;48.562;14.440;2022-08-19T03:39:44;16.80;99.90
41592;DHT22;28026;48.562;14.440;2022-08-19T03:42:15;16.80;99.90
41592;DHT22;28026;48.562;14.440;2022-08-19T03:44:47;16.70;99.90
41592;DHT22;28026;48.562;14.440;2022-08-19T03:47:18;16.50;99.90
41592;DHT22;28026;48.562;14.440;2022-08-19T03:49:49;16.40;99.90
41592;DHT22;28026;48.562;14.440;2022-08-19T03:52:20;16.40;99.90
41592;DHT22;28026;48.562;14.440;2022-08-19T03:54:51;16.40;99.90
41592;DHT22;28026;48.562;14.440;2022-08-19T03:57:22;16.50;99.90
41592;DHT22;28026;48.562;14.440;2022-08-19T03:59:53;16.50;99.90
41592;DHT22;28026;48.562;14.440;2022-08-19T04:02:24;16.40;99.90
41592;DHT22;28026;48.562;14.440;2022-08-19T04:04:55;16.30;99.90
41592;DHT22;28026;48.562;14.440;2022-08-19T04:07:26;16.30;99.90
41592;DHT22;28026;48.562;14.440;2022-08-19T04:09:57;16.40;99.90
41592;DHT22;28026;48.562;14.440;2022-08-19T04:12:28;16.50;99.90
41592;DHT22;28026;48.562;14.440;2022-08-19T04:14:59;16.60;99.90
41592;DHT22;28026;48.562;14.440;2022-08-19T04:17:30;16.60;99.90
41592;DHT22;28026;48.562;14.440;2022-08-19T04:20:01;16.60;99.90
41592;DHT22;28026;48.562;14.440;2022-08-19T04:22:32;16.60;99.90
41592;DHT22;28026;48.562;14.440;2022-08-19T04:25:03;16.40;99.90
41592;DHT22;28026;48.562;14.440;2022-08-19T04:27:35;16.40;99.90
41592;DHT22;28026;48.562;14.440;2022-08-19T04:30:06;16.40;99.90
41592;DHT22;28026;48.562;14.440;2022-08-19T04:32:38;16.50;99.90
41592;DHT22;28026;48.562;14.440;2022-08-19T04:35:09;16.40;99.90
41592;DHT22;28026;48.562;14.440;2022-08-19T04:37:40;16.30;99.90
41592;DHT22;28026;48.562;14.440;2022-08-19T04:40:11;16.50;99.90
41592;DHT22;28026;48.562;14.440;2022-08-19T04:43:01;16.60;99.90
41592;DHT22;28026;48.562;14.440;2022-08-19T04:45:31;16.70;99.90
41592;DHT22;28026;48.562;14.440;2022-08-19T04:48:03;16.80;99.90
41592;DHT22;28026;48.562;14.440;2022-08-19T04:50:34;16.80;99.90
41592;DHT22;28026;48.562;14.440;2022-08-19T04:53:05;16.90;99.90
41592;DHT22;28026;48.562;14.440;2022-08-19T04:55:42;16.80;99.90
41592;DHT22;28026;48.562;14.440;2022-08-19T04:58:13;16.70;99.90
41592;DHT22;28026;48.562;14.440;2022-08-19T05:00:44;16.70;99.90
41592;DHT22;28026;48.562;14.440;2022-08-19T05:03:15;16.80;99.90
41592;DHT22;28026;48.562;14.440;2022-08-19T05:05:48;16.90;99.90
41592;DHT22;28026;48.562;14.440;2022-08-19T05:08:20;16.90;99.90
41592;DHT22;28026;48.562;14.440;2022-08-19T05:10:52;16.90;99.90
41592;DHT22;28026;48.562;14.440;2022-08-19T05:13:23;16.90;99.90
41592;DHT22;28026;48.562;14.440;2022-08-19T05:15:58;16.90;99.90
41592;DHT22;28026;48.562;14.440;2022-08-19T05:18:30;16.90;99.90
41592;DHT22;28026;48.562;14.440;2022-08-19T05:21:21;16.90;99.90
41592;DHT22;28026;48.562;14.440;2022-08-19T05:24:12;17.00;99.90
41592;DHT22;28026;48.562;14.440;2022-08-19T05:26:47;17.10;99.90
41592;DHT22;28026;48.562;14.440;2022-08-19T05:29:21;17.10;99.90
41592;DHT22;28026;48.562;14.440;2022-08-19T05:31:54;17.20;99.90
41592;DHT22;28026;48.562;14.440;2022-08-19T05:34:26;17.20;99.90
41592;DHT22;28026;48.562;14.440;2022-08-19T05:36:59;17.10;99.90
41592;DHT22;28026;48.562;14.440;2022-08-19T05:39:34;17.20;99.90
41592;DHT22;28026;48.562;14.440;2022-08-19T05:42:09;17.20;99.90
41592;DHT22;28026;48.562;14.440;2022-08-19T05:44:43;17.30;99.90
41592;DHT22;28026;48.562;14.440;2022-08-19T05:47:15;17.30;99.90
41592;DHT22;28026;48.562;14.440;2022-08-19T05:49:49;17.30;99.90
41592;DHT22;28026;48.562;14.440;2022-08-19T05:52:20;17.40;99.90
41592;DHT22;28026;48.562;14.440;2022-08-19T05:54:52;17.40;99.90
41592;DHT22;28026;48.562;14.440;2022-08-19T05:57:25;17.40;99.90
41592;DHT22;28026;48.562;14.440;2022-08-19T05:59:59;17.50;99.90
41592;DHT22;28026;48.562;14.440;2022-08-19T06:02:32;17.60;99.90
41592;DHT22;28026;48.562;14.440;2022-08-19T06:05:04;17.50;99.90
41592;DHT22;28026;48.562;14.440;2022-08-19T06:07:40;17.60;99.90
41592;DHT22;28026;48.562;14.440;2022-08-19T06:10:11;17.60;99.90
41592;DHT22;28026;48.562;14.440;2022-08-19T06:12:42;17.60;99.90
41592;DHT22;28026;48.562;14.440;2022-08-19T06:15:14;17.70;99.90
41592;DHT22;28026;48.562;14.440;2022-08-19T06:17:45;17.70;99.90
41592;DHT22;28026;48.562;14.440;2022-08-19T06:20:16;17.70;99.90
41592;DHT22;28026;48.562;14.440;2022-08-19T06:22:49;17.70;99.90
41592;DHT22;28026;48.562;14.440;2022-08-19T06:25:21;17.70;99.90
41592;DHT22;28026;48.562;14.440;2022-08-19T06:27:52;17.80;99.90
41592;DHT22;28026;48.562;14.440;2022-08-19T06:30:23;17.90;99.90
41592;DHT22;28026;48.562;14.440;2022-08-19T06:32:54;18.00;99.90
41592;DHT22;28026;48.562;14.440;2022-08-19T06:35:26;18.10;99.90
41592;DHT22;28026;48.562;14.440;2022-08-19T06:37:57;18.10;99.90
41592;DHT22;28026;48.562;14.440;2022-08-19T06:40:28;18.20;99.90
41592;DHT22;28026;48.562;14.440;2022-08-19T06:42:59;18.30;99.90
41592;DHT22;28026;48.562;14.440;2022-08-19T06:45:32;18.50;99.90
41592;DHT22;28026;48.562;14.440;2022-08-19T06:48:03;18.70;99.90
41592;DHT22;28026;48.562;14.440;2022-08-19T06:50:34;18.80;99.90
41592;DHT22;28026;48.562;14.440;2022-08-19T06:53:05;19.10;99.90
41592;DHT22;28026;48.562;14.440;2022-08-19T06:55:36;19.20;99.90
41592;DHT22;28026;48.562;14.440;2022-08-19T06:58:07;19.30;99.90
41592;DHT22;28026;48.562;14.440;2022-08-19T07:00:39;19.30;99.90
41592;DHT22;28026;48.562;14.440;2022-08-19T07:03:10;19.30;99.90
41592;DHT22;28026;48.562;14.440;2022-08-19T07:05:42;19.30;99.90
41592;DHT22;28026;48.562;14.440;2022-08-19T07:08:13;19.10;99.90
41592;DHT22;28026;48.562;14.440;2022-08-19T07:10:45;19.30;99.90
41592;DHT22;28026;48.562;14.440;2022-08-19T07:13:16;19.50;99.90
41592;DHT22;28026;48.562;14.440;2022-08-19T07:15:48;19.50;99.90
41592;DHT22;28026;48.562;14.440;2022-08-19T07:18:20;19.40;99.90
41592;DHT22;28026;48.562;14.440;2022-08-19T07:21:05;19.50;99.90
41592;DHT22;28026;48.562;14.440;2022-08-19T07:23:44;19.60;99.90
41592;DHT22;28026;48.562;14.440;2022-08-19T07:29:00;19.50;99.90
41592;DHT22;28026;48.562;14.440;2022-08-19T07:31:32;19.70;99.90
41592;DHT22;28026;48.562;14.440;2022-08-19T07:34:10;19.90;99.90
41592;DHT22;28026;48.562;14.440;2022-08-19T07:36:44;19.80;99.90
41592;DHT22;28026;48.562;14.440;2022-08-19T07:39:25;19.50;99.90
41592;DHT22;28026;48.562;14.440;2022-08-19T07:42:02;19.60;99.90
41592;DHT22;28026;48.562;14.440;2022-08-19T07:44:38;19.30;99.90
41592;DHT22;28026;48.562;14.440;2022-08-19T07:47:10;19.30;99.90
41592;DHT22;28026;48.562;14.440;2022-08-19T07:49:42;19.40;99.90
41592;DHT22;28026;48.562;14.440;2022-08-19T07:52:13;19.70;99.90
41592;DHT22;28026;48.562;14.440;2022-08-19T07:54:43;20.10;99.90
41592;DHT22;28026;48.562;14.440;2022-08-19T07:57:14;20.50;99.90
41592;DHT22;28026;48.562;14.440;2022-08-19T07:59:46;20.80;99.90
41592;DHT22;28026;48.562;14.440;2022-08-19T08:02:17;20.90;99.90
41592;DHT22;28026;48.562;14.440;2022-08-19T08:04:48;20.80;99.90
41592;DHT22;28026;48.562;14.440;2022-08-19T08:07:37;20.80;99.90
41592;DHT22;28026;48.562;14.440;2022-08-19T08:10:27;21.00;99.90
41592;DHT22;28026;48.562;14.440;2022-08-19T08:12:58;20.80;99.90
41592;DHT22;28026;48.562;14.440;2022-08-19T08:15:29;20.50;99.90
41592;DHT22;28026;48.562;14.440;2022-08-19T08:18:00;20.40;99.90
41592;DHT22;28026;48.562;14.440;2022-08-19T08:20:31;20.50;99.90
41592;DHT22;28026;48.562;14.440;2022-08-19T08:23:03;20.20;99.90
41592;DHT22;28026;48.562;14.440;2022-08-19T08:25:57;20.10;99.90
41592;DHT22;28026;48.562;14.440;2022-08-19T08:28:28;20.20;99.90
41592;DHT22;28026;48.562;14.440;2022-08-19T08:31:00;20.60;99.90
41592;DHT22;28026;48.562;14.440;2022-08-19T08:33:30;20.90;99.90
41592;DHT22;28026;48.562;14.440;2022-08-19T08:36:04;20.90;99.90
41592;DHT22;28026;48.562;14.440;2022-08-19T08:38:36;21.00;99.90
41592;DHT22;28026;48.562;14.440;2022-08-19T08:47:37;20.70;99.90
41592;DHT22;28026;48.562;14.440;2022-08-19T08:50:29;20.70;99.90
41592;DHT22;28026;48.562;14.440;2022-08-19T08:53:09;21.00;99.90
41592;DHT22;28026;48.562;14.440;2022-08-19T08:55:47;21.20;99.90
41592;DHT22;28026;48.562;14.440;2022-08-19T08:58:30;21.40;99.90
41592;DHT22;28026;48.562;14.440;2022-08-19T09:01:12;21.60;99.90
41592;DHT22;28026;48.562;14.440;2022-08-19T09:03:44;22.20;99.90
41592;DHT22;28026;48.562;14.440;2022-08-19T09:09:48;22.60;99.90
41592;DHT22;28026;48.562;14.440;2022-08-19T09:12:27;22.70;99.90
41592;DHT22;28026;48.562;14.440;2022-08-19T09:15:16;22.60;99.90
41592;DHT22;28026;48.562;14.440;2022-08-19T09:18:02;22.50;99.90
41592;DHT22;28026;48.562;14.440;2022-08-19T09:20:34;22.80;99.90
41592;DHT22;28026;48.562;14.440;2022-08-19T09:23:05;23.50;99.90
41592;DHT22;28026;48.562;14.440;2022-08-19T09:25:36;24.60;99.90
41592;DHT22;28026;48.562;14.440;2022-08-19T09:28:10;25.10;99.90
41592;DHT22;28026;48.562;14.440;2022-08-19T09:30:41;25.10;99.90
41592;DHT22;28026;48.562;14.440;2022-08-19T09:33:12;25.30;99.90
41592;DHT22;28026;48.562;14.440;2022-08-19T09:35:43;26.30;99.90
41592;DHT22;28026;48.562;14.440;2022-08-19T09:38:14;26.80;99.90
41592;DHT22;28026;48.562;14.440;2022-08-19T09:40:45;26.20;99.90
41592;DHT22;28026;48.562;14.440;2022-08-19T09:43:16;25.70;99.90
41592;DHT22;28026;48.562;14.440;2022-08-19T09:45:48;25.60;99.90
41592;DHT22;28026;48.562;14.440;2022-08-19T09:48:19;25.30;99.90
41592;DHT22;28026;48.562;14.440;2022-08-19T09:50:50;25.80;99.90
41592;DHT22;28026;48.562;14.440;2022-08-19T09:53:21;25.40;99.90
41592;DHT22;28026;48.562;14.440;2022-08-19T09:55:55;25.40;99.90
41592;DHT22;28026;48.562;14.440;2022-08-19T09:58:26;25.90;99.90
41592;DHT22;28026;48.562;14.440;2022-08-19T10:00:58;26.90;99.90
41592;DHT22;28026;48.562;14.440;2022-08-19T10:03:33;27.40;99.90
41592;DHT22;28026;48.562;14.440;2022-08-19T10:06:07;27.10;99.90
41592;DHT22;28026;48.562;14.440;2022-08-19T10:08:39;26.50;99.90
41592;DHT22;28026;48.562;14.440;2022-08-19T10:11:10;26.70;99.90
41592;DHT22;28026;48.562;14.440;2022-08-19T10:13:42;26.40;99.90
41592;DHT22;28026;48.562;14.440;2022-08-19T10:16:17;26.40;99.90
41592;DHT22;28026;48.562;14.440;2022-08-19T10:18:53;26.90;99.90
41592;DHT22;28026;48.562;14.440;2022-08-19T10:21:26;27.40;99.90
41592;DHT22;28026;48.562;14.440;2022-08-19T10:24:02;27.60;99.90
41592;DHT22;28026;48.562;14.440;2022-08-19T10:26:38;27.60;99.90
41592;DHT22;28026;48.562;14.440;2022-08-19T10:29:15;26.90;99.90
41592;DHT22;28026;48.562;14.440;2022-08-19T10:31:46;25.50;99.90
41592;DHT22;28026;48.562;14.440;2022-08-19T10:34:17;24.40;99.90
41592;DHT22;28026;48.562;14.440;2022-08-19T10:36:50;25.30;99.90
41592;DHT22;28026;48.562;14.440;2022-08-19T10:39:21;26.00;99.90
41592;DHT22;28026;48.562;14.440;2022-08-19T10:41:52;26.20;99.90
41592;DHT22;28026;48.562;14.440;2022-08-19T10:44:23;26.40;99.90
41592;DHT22;28026;48.562;14.440;2022-08-19T10:46:55;26.30;99.90
41592;DHT22;28026;48.562;14.440;2022-08-19T10:49:27;25.90;99.90
41592;DHT22;28026;48.562;14.440;2022-08-19T10:51:58;25.80;99.90
41592;DHT22;28026;48.562;14.440;2022-08-19T10:54:47;25.90;99.90
41592;DHT22;28026;48.562;14.440;2022-08-19T10:57:37;26.40;99.90
41592;DHT22;28026;48.562;14.440;2022-08-19T11:00:08;27.70;99.90
41592;DHT22;28026;48.562;14.440;2022-08-19T11:02:41;28.50;99.90
41592;DHT22;28026;48.562;14.440;2022-08-19T11:05:12;29.10;99.90
41592;DHT22;28026;48.562;14.440;2022-08-19T11:07:45;29.20;99.90
41592;DHT22;28026;48.562;14.440;2022-08-19T11:10:16;29.70;99.90
41592;DHT22;28026;48.562;14.440;2022-08-19T11:12:49;29.20;99.90
41592;DHT22;28026;48.562;14.440;2022-08-19T11:15:24;28.30;99.90
41592;DHT22;28026;48.562;14.440;2022-08-19T11:17:55;28.60;99.90
41592;DHT22;28026;48.562;14.440;2022-08-19T11:20:26;28.00;99.90
41592;DHT22;28026;48.562;14.440;2022-08-19T11:22:57;28.40;99.90
41592;DHT22;28026;48.562;14.440;2022-08-19T11:25:28;29.10;99.90
41592;DHT22;28026;48.562;14.440;2022-08-19T11:27:59;28.50;99.90
41592;DHT22;28026;48.562;14.440;2022-08-19T11:30:30;27.40;99.90
41592;DHT22;28026;48.562;14.440;2022-08-19T11:33:01;27.90;99.90
41592;DHT22;28026;48.562;14.440;2022-08-19T11:35:32;28.40;99.90
41592;DHT22;28026;48.562;14.440;2022-08-19T11:38:03;28.40;99.90
41592;DHT22;28026;48.562;14.440;2022-08-19T11:40:34;28.20;99.90
41592;DHT22;28026;48.562;14.440;2022-08-19T11:43:05;28.30;99.90
41592;DHT22;28026;48.562;14.440;2022-08-19T11:45:36;28.10;99.90
41592;DHT22;28026;48.562;14.440;2022-08-19T11:48:07;28.10;99.90
41592;DHT22;28026;48.562;14.440;2022-08-19T11:50:38;28.20;99.90
41592;DHT22;28026;48.562;14.440;2022-08-19T11:53:12;28.00;99.90
41592;DHT22;28026;48.562;14.440;2022-08-19T11:55:43;27.60;99.90
41592;DHT22;28026;48.562;14.440;2022-08-19T11:58:16;27.40;99.90
41592;DHT22;28026;48.562;14.440;2022-08-19T12:00:48;27.30;99.90
41592;DHT22;28026;48.562;14.440;2022-08-19T12:03:19;27.60;99.90
41592;DHT22;28026;48.562;14.440;2022-08-19T12:05:50;29.00;99.90
41592;DHT22;28026;48.562;14.440;2022-08-19T12:08:22;29.70;99.90
41592;DHT22;28026;48.562;14.440;2022-08-19T12:10:53;29.50;99.90
41592;DHT22;28026;48.562;14.440;2022-08-19T12:13:24;28.90;99.90
41592;DHT22;28026;48.562;14.440;2022-08-19T12:15:54;28.60;99.90
41592;DHT22;28026;48.562;14.440;2022-08-19T12:18:26;28.80;99.90
41592;DHT22;28026;48.562;14.440;2022-08-19T12:20:57;29.00;99.90
41592;DHT22;28026;48.562;14.440;2022-08-19T12:23:31;28.20;99.90
41592;DHT22;28026;48.562;14.440;2022-08-19T12:26:03;27.70;99.90
41592;DHT22;28026;48.562;14.440;2022-08-19T12:28:34;27.90;99.90
41592;DHT22;28026;48.562;14.440;2022-08-19T12:31:05;28.00;99.90
41592;DHT22;28026;48.562;14.440;2022-08-19T12:33:36;28.20;99.90
41592;DHT22;28026;48.562;14.440;2022-08-19T12:36:10;28.30;99.90
41592;DHT22;28026;48.562;14.440;2022-08-19T12:38:44;29.40;99.90
41592;DHT22;28026;48.562;14.440;2022-08-19T12:41:18;28.80;99.90
41592;DHT22;28026;48.562;14.440;2022-08-19T12:43:52;28.00;99.90
41592;DHT22;28026;48.562;14.440;2022-08-19T12:46:23;27.50;99.90
41592;DHT22;28026;48.562;14.440;2022-08-19T12:48:54;27.90;99.90
41592;DHT22;28026;48.562;14.440;2022-08-19T12:51:26;27.90;99.90
41592;DHT22;28026;48.562;14.440;2022-08-19T12:53:57;27.30;99.90
41592;DHT22;28026;48.562;14.440;2022-08-19T12:56:28;27.40;99.90
41592;DHT22;28026;48.562;14.440;2022-08-19T12:59:03;28.70;99.90
41592;DHT22;28026;48.562;14.440;2022-08-19T13:01:35;28.40;99.90
41592;DHT22;28026;48.562;14.440;2022-08-19T13:04:06;27.80;99.90
41592;DHT22;28026;48.562;14.440;2022-08-19T13:06:37;27.80;99.90
41592;DHT22;28026;48.562;14.440;2022-08-19T13:09:08;27.40;99.90
41592;DHT22;28026;48.562;14.440;2022-08-19T13:11:40;27.70;99.90
41592;DHT22;28026;48.562;14.440;2022-08-19T13:14:11;28.40;99.90
41592;DHT22;28026;48.562;14.440;2022-08-19T13:16:42;28.90;99.90
41592;DHT22;28026;48.562;14.440;2022-08-19T13:19:13;27.20;99.90
41592;DHT22;28026;48.562;14.440;2022-08-19T13:21:44;26.80;99.90
41592;DHT22;28026;48.562;14.440;2022-08-19T13:24:15;26.90;99.90
41592;DHT22;28026;48.562;14.440;2022-08-19T13:26:46;27.10;99.90
41592;DHT22;28026;48.562;14.440;2022-08-19T13:29:19;27.00;99.90
41592;DHT22;28026;48.562;14.440;2022-08-19T13:32:08;26.60;99.90
41592;DHT22;28026;48.562;14.440;2022-08-19T13:34:58;26.90;99.90
41592;DHT22;28026;48.562;14.440;2022-08-19T13:37:29;27.90;99.90
41592;DHT22;28026;48.562;14.440;2022-08-19T13:40:13;27.50;99.90
41592;DHT22;28026;48.562;14.440;2022-08-19T13:42:51;27.90;99.90
41592;DHT22;28026;48.562;14.440;2022-08-19T13:45:27;27.50;99.90
41592;DHT22;28026;48.562;14.440;2022-08-19T13:48:05;28.00;99.90
41592;DHT22;28026;48.562;14.440;2022-08-19T13:50:41;27.50;99.90
41592;DHT22;28026;48.562;14.440;2022-08-19T13:53:16;27.30;99.90
41592;DHT22;28026;48.562;14.440;2022-08-19T13:55:47;27.30;99.90
41592;DHT22;28026;48.562;14.440;2022-08-19T13:58:20;27.70;99.90
41592;DHT22;28026;48.562;14.440;2022-08-19T14:00:52;28.60;99.90
41592;DHT22;28026;48.562;14.440;2022-08-19T14:03:23;28.20;99.90
41592;DHT22;28026;48.562;14.440;2022-08-19T14:05:54;27.00;99.90
41592;DHT22;28026;48.562;14.440;2022-08-19T14:08:26;26.60;99.90
41592;DHT22;28026;48.562;14.440;2022-08-19T14:10:58;26.90;99.90
41592;DHT22;28026;48.562;14.440;2022-08-19T14:13:30;27.20;99.90
41592;DHT22;28026;48.562;14.440;2022-08-19T14:16:08;28.40;99.90
41592;DHT22;28026;48.562;14.440;2022-08-19T14:18:43;28.70;99.90
41592;DHT22;28026;48.562;14.440;2022-08-19T14:21:18;28.00;99.90
41592;DHT22;28026;48.562;14.440;2022-08-19T14:23:52;28.30;99.90
41592;DHT22;28026;48.562;14.440;2022-08-19T14:26:23;27.60;99.90
41592;DHT22;28026;48.562;14.440;2022-08-19T14:28:54;27.50;99.90
41592;DHT22;28026;48.562;14.440;2022-08-19T14:31:28;28.00;99.90
41592;DHT22;28026;48.562;14.440;2022-08-19T14:33:59;28.60;99.90
41592;DHT22;28026;48.562;14.440;2022-08-19T14:36:29;29.20;99.90
41592;DHT22;28026;48.562;14.440;2022-08-19T14:39:02;28.40;99.90
41592;DHT22;28026;48.562;14.440;2022-08-19T14:41:36;27.70;99.90
41592;DHT22;28026;48.562;14.440;2022-08-19T14:44:10;28.50;99.90
41592;DHT22;28026;48.562;14.440;2022-08-19T14:46:45;28.40;99.90
41592;DHT22;28026;48.562;14.440;2022-08-19T14:49:16;27.30;99.90
41592;DHT22;28026;48.562;14.440;2022-08-19T14:51:48;27.70;99.90
41592;DHT22;28026;48.562;14.440;2022-08-19T14:54:19;28.40;99.90
41592;DHT22;28026;48.562;14.440;2022-08-19T14:56:51;27.00;99.90
41592;DHT22;28026;48.562;14.440;2022-08-19T14:59:22;27.20;99.90
41592;DHT22;28026;48.562;14.440;2022-08-19T15:01:54;26.60;99.90
41592;DHT22;28026;48.562;14.440;2022-08-19T15:04:25;26.00;99.90
41592;DHT22;28026;48.562;14.440;2022-08-19T15:06:56;26.20;99.90
41592;DHT22;28026;48.562;14.440;2022-08-19T15:09:27;26.40;99.90
41592;DHT22;28026;48.562;14.440;2022-08-19T15:11:58;26.80;99.90
41592;DHT22;28026;48.562;14.440;2022-08-19T15:14:31;27.20;99.90
41592;DHT22;28026;48.562;14.440;2022-08-19T15:17:04;26.90;99.90
41592;DHT22;28026;48.562;14.440;2022-08-19T15:19:35;27.10;99.90
41592;DHT22;28026;48.562;14.440;2022-08-19T15:22:06;27.50;99.90
41592;DHT22;28026;48.562;14.440;2022-08-19T15:24:37;27.50;99.90
41592;DHT22;28026;48.562;14.440;2022-08-19T15:27:08;27.60;99.90
41592;DHT22;28026;48.562;14.440;2022-08-19T15:29:39;27.20;99.90
41592;DHT22;28026;48.562;14.440;2022-08-19T15:32:10;27.10;99.90
41592;DHT22;28026;48.562;14.440;2022-08-19T15:34:41;27.00;99.90
41592;DHT22;28026;48.562;14.440;2022-08-19T15:37:13;25.60;99.90
41592;DHT22;28026;48.562;14.440;2022-08-19T15:39:43;25.70;99.90
41592;DHT22;28026;48.562;14.440;2022-08-19T15:42:16;26.70;99.90
41592;DHT22;28026;48.562;14.440;2022-08-19T15:44:47;26.30;99.90
41592;DHT22;28026;48.562;14.440;2022-08-19T15:47:18;25.60;99.90
41592;DHT22;28026;48.562;14.440;2022-08-19T15:49:49;25.40;99.90
41592;DHT22;28026;48.562;14.440;2022-08-19T15:52:20;25.10;99.90
41592;DHT22;28026;48.562;14.440;2022-08-19T15:54:51;24.90;99.90
41592;DHT22;28026;48.562;14.440;2022-08-19T15:57:22;24.50;99.90
41592;DHT22;28026;48.562;14.440;2022-08-19T15:59:56;24.30;99.90
41592;DHT22;28026;48.562;14.440;2022-08-19T16:02:45;24.00;99.90
41592;DHT22;28026;48.562;14.440;2022-08-19T16:05:35;23.70;99.90